TLPL/UVF METAR and TAF weather

Enter ICAO airport designator
Station Type Date Time Source
TLPL METAR 2021/10/24 22:00 UTC NOAA

TLPL 242200Z 07020KT 9999 SCT028 28/23 Q1014 NOSIG


Station Type Date Time Source
TLPL Decoded METAR 2021/10/24 22:00 UTC NOAA

Hewanorra International Airport, Saint Lucia (TLPL) 13-45N 060-57W 10M
Oct 24, 2021 - 06:00 PM EDT / 2021.10.24 2200 UTC
Wind: from the ENE (070 degrees) at 23 MPH (20 KT):0
Visibility: greater than 7 mile(s):0
Sky conditions: partly cloudy
Temperature: 82 F (28 C)
Dew Point: 73 F (23 C)
Relative Humidity: 74%
Pressure (altimeter): 29.94 in. Hg (1014 hPa)
ob: TLPL 242200Z 07020KT 9999 SCT028 28/23 Q1014 NOSIG
cycle: 22

Station Type Date Time Source
TLPL TAF 2021/10/24 18:06 UTC NOAA

TAF TLPL 241700Z 2418/2518 08018KT 9999 SCT028

Example: see airport list